sensor_id;sensor_type;location;lat;lon;timestamp;P1;durP1;ratioP1;P2;durP2;ratioP2
17310;SDS011;8773;43.300;0.394;2022-12-01T00:01:20;13.07;;;11.97;;
17310;SDS011;8773;43.300;0.394;2022-12-01T00:03:48;13.20;;;11.90;;
17310;SDS011;8773;43.300;0.394;2022-12-01T00:06:17;14.20;;;12.90;;
17310;SDS011;8773;43.300;0.394;2022-12-01T00:08:47;13.53;;;12.23;;
17310;SDS011;8773;43.300;0.394;2022-12-01T00:11:36;11.70;;;10.77;;
17310;SDS011;8773;43.300;0.394;2022-12-01T00:14:04;11.40;;;10.50;;
17310;SDS011;8773;43.300;0.394;2022-12-01T00:16:33;11.90;;;10.77;;
17310;SDS011;8773;43.300;0.394;2022-12-01T00:19:01;11.37;;;10.43;;
17310;SDS011;8773;43.300;0.394;2022-12-01T00:21:29;12.03;;;10.90;;
17310;SDS011;8773;43.300;0.394;2022-12-01T00:23:57;11.50;;;10.50;;
17310;SDS011;8773;43.300;0.394;2022-12-01T00:26:25;10.63;;;9.73;;
17310;SDS011;8773;43.300;0.394;2022-12-01T00:28:55;10.67;;;9.87;;
17310;SDS011;8773;43.300;0.394;2022-12-01T00:31:24;11.57;;;10.60;;
17310;SDS011;8773;43.300;0.394;2022-12-01T00:33:53;12.07;;;10.93;;
17310;SDS011;8773;43.300;0.394;2022-12-01T00:36:22;15.23;;;13.93;;
17310;SDS011;8773;43.300;0.394;2022-12-01T00:38:51;14.87;;;13.57;;
17310;SDS011;8773;43.300;0.394;2022-12-01T00:41:20;13.07;;;11.97;;
17310;SDS011;8773;43.300;0.394;2022-12-01T00:43:49;12.97;;;11.77;;
17310;SDS011;8773;43.300;0.394;2022-12-01T00:46:19;14.77;;;13.57;;
17310;SDS011;8773;43.300;0.394;2022-12-01T00:48:47;14.23;;;12.83;;
17310;SDS011;8773;43.300;0.394;2022-12-01T00:51:15;15.33;;;13.97;;
17310;SDS011;8773;43.300;0.394;2022-12-01T00:53:43;15.57;;;14.07;;
17310;SDS011;8773;43.300;0.394;2022-12-01T00:56:12;15.20;;;13.83;;
17310;SDS011;8773;43.300;0.394;2022-12-01T00:58:40;16.27;;;14.77;;
17310;SDS011;8773;43.300;0.394;2022-12-01T01:01:08;15.07;;;13.77;;
17310;SDS011;8773;43.300;0.394;2022-12-01T01:03:38;14.90;;;13.60;;
17310;SDS011;8773;43.300;0.394;2022-12-01T01:06:06;14.77;;;13.47;;
17310;SDS011;8773;43.300;0.394;2022-12-01T01:08:37;13.93;;;12.73;;
17310;SDS011;8773;43.300;0.394;2022-12-01T01:11:05;13.90;;;12.67;;
17310;SDS011;8773;43.300;0.394;2022-12-01T01:13:35;14.30;;;13.10;;
17310;SDS011;8773;43.300;0.394;2022-12-01T01:16:05;15.60;;;14.20;;
17310;SDS011;8773;43.300;0.394;2022-12-01T01:18:34;14.13;;;12.93;;
17310;SDS011;8773;43.300;0.394;2022-12-01T01:21:04;14.70;;;13.40;;
17310;SDS011;8773;43.300;0.394;2022-12-01T01:23:34;14.70;;;13.37;;
17310;SDS011;8773;43.300;0.394;2022-12-01T01:26:02;14.23;;;12.93;;
17310;SDS011;8773;43.300;0.394;2022-12-01T01:28:32;14.27;;;12.97;;
17310;SDS011;8773;43.300;0.394;2022-12-01T01:31:03;14.13;;;12.93;;
17310;SDS011;8773;43.300;0.394;2022-12-01T01:33:32;13.37;;;12.27;;
17310;SDS011;8773;43.300;0.394;2022-12-01T01:36:00;14.67;;;13.37;;
17310;SDS011;8773;43.300;0.394;2022-12-01T01:38:31;13.93;;;12.70;;
17310;SDS011;8773;43.300;0.394;2022-12-01T01:40:59;15.83;;;14.33;;
17310;SDS011;8773;43.300;0.394;2022-12-01T01:43:39;14.40;;;13.10;;
17310;SDS011;8773;43.300;0.394;2022-12-01T01:46:10;14.97;;;13.67;;
17310;SDS011;8773;43.300;0.394;2022-12-01T01:48:40;15.13;;;13.83;;
17310;SDS011;8773;43.300;0.394;2022-12-01T01:51:10;15.70;;;14.30;;
17310;SDS011;8773;43.300;0.394;2022-12-01T01:53:42;14.47;;;13.17;;
17310;SDS011;8773;43.300;0.394;2022-12-01T01:56:13;14.33;;;13.10;;
17310;SDS011;8773;43.300;0.394;2022-12-01T01:58:41;14.63;;;13.33;;
17310;SDS011;8773;43.300;0.394;2022-12-01T02:01:11;15.80;;;14.40;;
17310;SDS011;8773;43.300;0.394;2022-12-01T02:03:39;14.60;;;13.30;;
17310;SDS011;8773;43.300;0.394;2022-12-01T02:06:08;15.53;;;14.23;;
17310;SDS011;8773;43.300;0.394;2022-12-01T02:08:37;15.30;;;14.00;;
17310;SDS011;8773;43.300;0.394;2022-12-01T02:14:22;13.87;;;12.77;;
17310;SDS011;8773;43.300;0.394;2022-12-01T02:17:00;15.53;;;14.20;;
17310;SDS011;8773;43.300;0.394;2022-12-01T02:19:52;15.67;;;14.27;;
17310;SDS011;8773;43.300;0.394;2022-12-01T02:22:34;15.13;;;13.83;;
17310;SDS011;8773;43.300;0.394;2022-12-01T02:25:39;15.97;;;14.67;;
17310;SDS011;8773;43.300;0.394;2022-12-01T02:28:26;15.33;;;13.93;;
17310;SDS011;8773;43.300;0.394;2022-12-01T02:31:12;16.97;;;15.40;;
17310;SDS011;8773;43.300;0.394;2022-12-01T02:33:46;16.57;;;15.07;;
17310;SDS011;8773;43.300;0.394;2022-12-01T02:36:20;15.70;;;14.30;;
17310;SDS011;8773;43.300;0.394;2022-12-01T02:39:01;16.93;;;15.43;;
17310;SDS011;8773;43.300;0.394;2022-12-01T02:41:35;14.83;;;13.53;;
17310;SDS011;8773;43.300;0.394;2022-12-01T02:44:07;14.03;;;12.73;;
17310;SDS011;8773;43.300;0.394;2022-12-01T02:46:43;13.50;;;12.30;;
17310;SDS011;8773;43.300;0.394;2022-12-01T02:49:16;13.17;;;12.07;;
17310;SDS011;8773;43.300;0.394;2022-12-01T02:51:48;12.40;;;11.37;;
17310;SDS011;8773;43.300;0.394;2022-12-01T02:54:18;11.80;;;10.80;;
17310;SDS011;8773;43.300;0.394;2022-12-01T02:56:50;12.50;;;11.40;;
17310;SDS011;8773;43.300;0.394;2022-12-01T02:59:19;10.90;;;10.03;;
17310;SDS011;8773;43.300;0.394;2022-12-01T03:01:52;12.10;;;11.00;;
17310;SDS011;8773;43.300;0.394;2022-12-01T03:07:24;12.53;;;11.37;;
17310;SDS011;8773;43.300;0.394;2022-12-01T03:10:11;11.03;;;10.10;;
17310;SDS011;8773;43.300;0.394;2022-12-01T03:12:48;12.60;;;11.50;;
17310;SDS011;8773;43.300;0.394;2022-12-01T03:15:30;11.43;;;10.43;;
17310;SDS011;8773;43.300;0.394;2022-12-01T03:18:06;11.47;;;10.47;;
17310;SDS011;8773;43.300;0.394;2022-12-01T03:20:45;10.63;;;9.73;;
17310;SDS011;8773;43.300;0.394;2022-12-01T03:23:21;10.67;;;9.77;;
17310;SDS011;8773;43.300;0.394;2022-12-01T03:25:51;10.40;;;9.60;;
17310;SDS011;8773;43.300;0.394;2022-12-01T03:28:22;9.03;;;8.37;;
17310;SDS011;8773;43.300;0.394;2022-12-01T03:30:56;9.20;;;8.47;;
17310;SDS011;8773;43.300;0.394;2022-12-01T03:33:30;8.93;;;8.23;;
17310;SDS011;8773;43.300;0.394;2022-12-01T03:36:02;9.03;;;8.33;;
17310;SDS011;8773;43.300;0.394;2022-12-01T03:38:33;8.70;;;8.10;;
17310;SDS011;8773;43.300;0.394;2022-12-01T03:41:04;8.93;;;8.23;;
17310;SDS011;8773;43.300;0.394;2022-12-01T03:43:37;8.50;;;7.90;;
17310;SDS011;8773;43.300;0.394;2022-12-01T03:46:11;9.03;;;8.37;;
17310;SDS011;8773;43.300;0.394;2022-12-01T03:48:45;9.20;;;8.40;;
17310;SDS011;8773;43.300;0.394;2022-12-01T03:51:14;8.97;;;8.27;;
17310;SDS011;8773;43.300;0.394;2022-12-01T03:53:49;8.93;;;8.23;;
17310;SDS011;8773;43.300;0.394;2022-12-01T03:56:24;9.20;;;8.50;;
17310;SDS011;8773;43.300;0.394;2022-12-01T03:58:57;9.33;;;8.63;;
17310;SDS011;8773;43.300;0.394;2022-12-01T04:01:29;8.80;;;8.10;;
17310;SDS011;8773;43.300;0.394;2022-12-01T04:04:04;8.87;;;8.17;;
17310;SDS011;8773;43.300;0.394;2022-12-01T04:06:34;9.33;;;8.53;;
17310;SDS011;8773;43.300;0.394;2022-12-01T04:09:02;9.30;;;8.60;;
17310;SDS011;8773;43.300;0.394;2022-12-01T04:11:31;9.73;;;9.03;;
17310;SDS011;8773;43.300;0.394;2022-12-01T04:14:16;9.27;;;8.47;;
17310;SDS011;8773;43.300;0.394;2022-12-01T04:16:44;8.87;;;8.17;;
17310;SDS011;8773;43.300;0.394;2022-12-01T04:19:13;9.63;;;8.77;;
17310;SDS011;8773;43.300;0.394;2022-12-01T04:21:41;9.90;;;9.10;;
17310;SDS011;8773;43.300;0.394;2022-12-01T04:24:10;9.50;;;8.80;;
17310;SDS011;8773;43.300;0.394;2022-12-01T04:26:38;9.30;;;8.60;;
17310;SDS011;8773;43.300;0.394;2022-12-01T04:29:08;10.03;;;9.33;;
17310;SDS011;8773;43.300;0.394;2022-12-01T04:31:37;10.07;;;9.33;;
17310;SDS011;8773;43.300;0.394;2022-12-01T04:34:05;9.60;;;8.83;;
17310;SDS011;8773;43.300;0.394;2022-12-01T04:36:35;9.87;;;9.17;;
17310;SDS011;8773;43.300;0.394;2022-12-01T04:39:03;10.23;;;9.43;;
17310;SDS011;8773;43.300;0.394;2022-12-01T04:41:31;10.80;;;9.93;;
17310;SDS011;8773;43.300;0.394;2022-12-01T04:44:00;10.73;;;9.80;;
17310;SDS011;8773;43.300;0.394;2022-12-01T04:46:28;10.40;;;9.60;;
17310;SDS011;8773;43.300;0.394;2022-12-01T04:48:56;10.20;;;9.37;;
17310;SDS011;8773;43.300;0.394;2022-12-01T04:51:24;10.00;;;9.20;;
17310;SDS011;8773;43.300;0.394;2022-12-01T04:53:53;10.77;;;9.87;;
17310;SDS011;8773;43.300;0.394;2022-12-01T04:56:24;9.83;;;9.13;;
17310;SDS011;8773;43.300;0.394;2022-12-01T04:58:52;8.67;;;8.00;;
17310;SDS011;8773;43.300;0.394;2022-12-01T05:01:20;10.13;;;9.33;;
17310;SDS011;8773;43.300;0.394;2022-12-01T05:03:48;9.83;;;9.03;;
17310;SDS011;8773;43.300;0.394;2022-12-01T05:06:17;10.10;;;9.20;;
17310;SDS011;8773;43.300;0.394;2022-12-01T05:08:47;10.27;;;9.57;;
17310;SDS011;8773;43.300;0.394;2022-12-01T05:11:17;11.37;;;10.37;;
17310;SDS011;8773;43.300;0.394;2022-12-01T05:13:46;9.73;;;9.03;;
17310;SDS011;8773;43.300;0.394;2022-12-01T05:16:15;10.07;;;9.27;;
17310;SDS011;8773;43.300;0.394;2022-12-01T05:18:49;10.60;;;9.70;;
17310;SDS011;8773;43.300;0.394;2022-12-01T05:21:38;10.40;;;9.60;;
17310;SDS011;8773;43.300;0.394;2022-12-01T05:24:06;10.57;;;9.63;;
17310;SDS011;8773;43.300;0.394;2022-12-01T05:26:36;11.23;;;10.23;;
17310;SDS011;8773;43.300;0.394;2022-12-01T05:29:05;11.33;;;10.23;;
17310;SDS011;8773;43.300;0.394;2022-12-01T05:31:33;10.40;;;9.60;;
17310;SDS011;8773;43.300;0.394;2022-12-01T05:34:01;9.23;;;8.50;;
17310;SDS011;8773;43.300;0.394;2022-12-01T05:36:29;13.67;;;9.93;;
17310;SDS011;8773;43.300;0.394;2022-12-01T05:38:58;12.87;;;10.23;;
17310;SDS011;8773;43.300;0.394;2022-12-01T05:41:26;11.80;;;10.77;;
17310;SDS011;8773;43.300;0.394;2022-12-01T05:43:55;12.00;;;11.00;;
17310;SDS011;8773;43.300;0.394;2022-12-01T05:46:23;12.40;;;11.27;;
17310;SDS011;8773;43.300;0.394;2022-12-01T05:48:52;11.93;;;10.83;;
17310;SDS011;8773;43.300;0.394;2022-12-01T05:51:20;11.80;;;10.70;;
17310;SDS011;8773;43.300;0.394;2022-12-01T05:53:48;11.80;;;10.70;;
17310;SDS011;8773;43.300;0.394;2022-12-01T05:56:16;11.90;;;10.87;;
17310;SDS011;8773;43.300;0.394;2022-12-01T05:58:44;13.03;;;11.80;;
17310;SDS011;8773;43.300;0.394;2022-12-01T06:01:13;12.80;;;11.70;;
17310;SDS011;8773;43.300;0.394;2022-12-01T06:03:41;11.93;;;10.93;;
17310;SDS011;8773;43.300;0.394;2022-12-01T06:06:09;12.40;;;11.27;;
17310;SDS011;8773;43.300;0.394;2022-12-01T06:08:37;12.20;;;11.23;;
17310;SDS011;8773;43.300;0.394;2022-12-01T06:11:05;13.03;;;11.83;;
17310;SDS011;8773;43.300;0.394;2022-12-01T06:13:33;12.50;;;11.37;;
17310;SDS011;8773;43.300;0.394;2022-12-01T06:16:02;12.40;;;11.20;;
17310;SDS011;8773;43.300;0.394;2022-12-01T06:18:34;11.40;;;10.40;;
17310;SDS011;8773;43.300;0.394;2022-12-01T06:21:04;12.30;;;11.13;;
17310;SDS011;8773;43.300;0.394;2022-12-01T06:23:33;12.27;;;11.27;;
17310;SDS011;8773;43.300;0.394;2022-12-01T06:26:01;11.30;;;10.30;;
17310;SDS011;8773;43.300;0.394;2022-12-01T06:28:29;11.20;;;10.30;;
17310;SDS011;8773;43.300;0.394;2022-12-01T06:30:57;11.33;;;10.23;;
17310;SDS011;8773;43.300;0.394;2022-12-01T06:33:28;15.33;;;11.50;;
17310;SDS011;8773;43.300;0.394;2022-12-01T06:35:58;12.20;;;11.10;;
17310;SDS011;8773;43.300;0.394;2022-12-01T06:38:28;12.57;;;11.40;;
17310;SDS011;8773;43.300;0.394;2022-12-01T06:40:57;11.27;;;10.37;;
17310;SDS011;8773;43.300;0.394;2022-12-01T06:43:25;12.80;;;11.70;;
17310;SDS011;8773;43.300;0.394;2022-12-01T06:45:53;12.13;;;11.13;;
17310;SDS011;8773;43.300;0.394;2022-12-01T06:48:27;12.30;;;11.27;;
17310;SDS011;8773;43.300;0.394;2022-12-01T06:50:55;12.30;;;11.20;;
17310;SDS011;8773;43.300;0.394;2022-12-01T06:53:25;13.17;;;11.83;;
17310;SDS011;8773;43.300;0.394;2022-12-01T06:55:53;13.03;;;11.83;;
17310;SDS011;8773;43.300;0.394;2022-12-01T06:58:26;13.87;;;12.60;;
17310;SDS011;8773;43.300;0.394;2022-12-01T07:00:55;12.73;;;11.53;;
17310;SDS011;8773;43.300;0.394;2022-12-01T07:03:24;12.60;;;11.53;;
17310;SDS011;8773;43.300;0.394;2022-12-01T07:05:56;12.67;;;11.47;;
17310;SDS011;8773;43.300;0.394;2022-12-01T07:08:26;13.23;;;12.03;;
17310;SDS011;8773;43.300;0.394;2022-12-01T07:10:56;12.93;;;11.67;;
17310;SDS011;8773;43.300;0.394;2022-12-01T07:13:25;11.93;;;10.93;;
17310;SDS011;8773;43.300;0.394;2022-12-01T07:15:58;16.47;;;12.33;;
17310;SDS011;8773;43.300;0.394;2022-12-01T07:18:27;12.93;;;11.73;;
17310;SDS011;8773;43.300;0.394;2022-12-01T07:20:57;13.63;;;12.33;;
17310;SDS011;8773;43.300;0.394;2022-12-01T07:23:27;13.23;;;11.90;;
17310;SDS011;8773;43.300;0.394;2022-12-01T07:25:59;14.00;;;12.70;;
17310;SDS011;8773;43.300;0.394;2022-12-01T07:28:27;13.47;;;12.10;;
17310;SDS011;8773;43.300;0.394;2022-12-01T07:31:02;13.23;;;12.13;;
17310;SDS011;8773;43.300;0.394;2022-12-01T07:33:32;13.57;;;12.27;;
17310;SDS011;8773;43.300;0.394;2022-12-01T07:36:01;13.83;;;12.40;;
17310;SDS011;8773;43.300;0.394;2022-12-01T07:38:31;14.10;;;12.80;;
17310;SDS011;8773;43.300;0.394;2022-12-01T07:41:00;14.53;;;13.23;;
17310;SDS011;8773;43.300;0.394;2022-12-01T07:43:29;13.30;;;12.13;;
17310;SDS011;8773;43.300;0.394;2022-12-01T07:46:02;12.57;;;11.57;;
17310;SDS011;8773;43.300;0.394;2022-12-01T07:48:31;13.77;;;12.57;;
17310;SDS011;8773;43.300;0.394;2022-12-01T07:50:59;13.97;;;12.77;;
17310;SDS011;8773;43.300;0.394;2022-12-01T07:53:28;13.40;;;12.30;;
17310;SDS011;8773;43.300;0.394;2022-12-01T07:55:57;13.63;;;12.53;;
17310;SDS011;8773;43.300;0.394;2022-12-01T07:58:33;13.27;;;12.17;;
17310;SDS011;8773;43.300;0.394;2022-12-01T08:01:04;13.40;;;12.10;;
17310;SDS011;8773;43.300;0.394;2022-12-01T08:03:33;13.73;;;12.53;;
17310;SDS011;8773;43.300;0.394;2022-12-01T08:06:02;12.83;;;11.73;;
17310;SDS011;8773;43.300;0.394;2022-12-01T08:08:31;13.73;;;12.63;;
17310;SDS011;8773;43.300;0.394;2022-12-01T08:11:02;13.10;;;12.00;;
17310;SDS011;8773;43.300;0.394;2022-12-01T08:13:32;13.77;;;12.57;;
17310;SDS011;8773;43.300;0.394;2022-12-01T08:16:01;13.60;;;12.50;;
17310;SDS011;8773;43.300;0.394;2022-12-01T08:18:30;13.87;;;12.57;;
17310;SDS011;8773;43.300;0.394;2022-12-01T08:20:58;13.30;;;12.10;;
17310;SDS011;8773;43.300;0.394;2022-12-01T08:23:26;13.37;;;12.17;;
17310;SDS011;8773;43.300;0.394;2022-12-01T08:25:54;12.90;;;11.80;;
17310;SDS011;8773;43.300;0.394;2022-12-01T08:28:24;13.57;;;12.33;;
17310;SDS011;8773;43.300;0.394;2022-12-01T08:30:52;14.03;;;12.63;;
17310;SDS011;8773;43.300;0.394;2022-12-01T08:33:20;15.17;;;13.73;;
17310;SDS011;8773;43.300;0.394;2022-12-01T08:35:49;22.97;;;15.10;;
17310;SDS011;8773;43.300;0.394;2022-12-01T08:38:17;14.50;;;12.80;;
17310;SDS011;8773;43.300;0.394;2022-12-01T08:40:45;16.50;;;13.13;;
17310;SDS011;8773;43.300;0.394;2022-12-01T08:43:13;17.40;;;14.70;;
17310;SDS011;8773;43.300;0.394;2022-12-01T08:46:02;18.97;;;14.13;;
17310;SDS011;8773;43.300;0.394;2022-12-01T08:48:30;15.93;;;13.47;;
17310;SDS011;8773;43.300;0.394;2022-12-01T08:51:05;14.37;;;12.93;;
17310;SDS011;8773;43.300;0.394;2022-12-01T08:53:37;15.10;;;13.60;;
17310;SDS011;8773;43.300;0.394;2022-12-01T08:56:12;15.67;;;13.90;;
17310;SDS011;8773;43.300;0.394;2022-12-01T08:58:42;15.20;;;13.77;;
17310;SDS011;8773;43.300;0.394;2022-12-01T09:01:13;14.83;;;13.53;;
17310;SDS011;8773;43.300;0.394;2022-12-01T09:03:42;18.00;;;16.20;;
17310;SDS011;8773;43.300;0.394;2022-12-01T09:06:11;15.30;;;14.00;;
17310;SDS011;8773;43.300;0.394;2022-12-01T09:08:41;16.63;;;14.93;;
17310;SDS011;8773;43.300;0.394;2022-12-01T09:11:10;15.30;;;13.83;;
17310;SDS011;8773;43.300;0.394;2022-12-01T09:13:40;14.70;;;13.40;;
17310;SDS011;8773;43.300;0.394;2022-12-01T09:16:10;15.20;;;13.83;;
17310;SDS011;8773;43.300;0.394;2022-12-01T09:18:42;18.50;;;16.80;;
17310;SDS011;8773;43.300;0.394;2022-12-01T09:21:12;53.07;;;47.57;;
17310;SDS011;8773;43.300;0.394;2022-12-01T09:23:41;19.23;;;17.43;;
17310;SDS011;8773;43.300;0.394;2022-12-01T09:26:10;14.97;;;13.37;;
17310;SDS011;8773;43.300;0.394;2022-12-01T09:28:43;14.67;;;13.47;;
17310;SDS011;8773;43.300;0.394;2022-12-01T09:31:13;15.43;;;14.07;;
17310;SDS011;8773;43.300;0.394;2022-12-01T09:33:43;15.03;;;13.67;;
17310;SDS011;8773;43.300;0.394;2022-12-01T09:36:12;15.23;;;13.73;;
17310;SDS011;8773;43.300;0.394;2022-12-01T09:38:40;16.23;;;14.53;;
17310;SDS011;8773;43.300;0.394;2022-12-01T09:41:20;17.77;;;16.07;;
17310;SDS011;8773;43.300;0.394;2022-12-01T09:43:53;23.80;;;15.73;;
17310;SDS011;8773;43.300;0.394;2022-12-01T09:46:29;16.77;;;15.03;;
17310;SDS011;8773;43.300;0.394;2022-12-01T09:49:11;17.23;;;15.60;;
17310;SDS011;8773;43.300;0.394;2022-12-01T09:51:44;18.63;;;15.63;;
17310;SDS011;8773;43.300;0.394;2022-12-01T09:54:12;16.97;;;15.20;;
17310;SDS011;8773;43.300;0.394;2022-12-01T09:56:41;18.07;;;16.37;;
17310;SDS011;8773;43.300;0.394;2022-12-01T09:59:14;15.97;;;14.17;;
17310;SDS011;8773;43.300;0.394;2022-12-01T10:01:51;15.63;;;14.03;;
17310;SDS011;8773;43.300;0.394;2022-12-01T10:04:23;17.33;;;15.40;;
17310;SDS011;8773;43.300;0.394;2022-12-01T10:06:56;16.60;;;15.10;;
17310;SDS011;8773;43.300;0.394;2022-12-01T10:09:28;18.33;;;16.53;;
17310;SDS011;8773;43.300;0.394;2022-12-01T10:12:10;17.13;;;15.57;;
17310;SDS011;8773;43.300;0.394;2022-12-01T10:14:42;28.03;;;17.00;;
17310;SDS011;8773;43.300;0.394;2022-12-01T10:17:15;20.00;;;16.60;;
17310;SDS011;8773;43.300;0.394;2022-12-01T10:19:53;16.93;;;15.33;;
17310;SDS011;8773;43.300;0.394;2022-12-01T10:22:31;16.70;;;15.20;;
17310;SDS011;8773;43.300;0.394;2022-12-01T10:25:14;17.33;;;15.67;;
17310;SDS011;8773;43.300;0.394;2022-12-01T10:27:50;15.93;;;14.47;;
17310;SDS011;8773;43.300;0.394;2022-12-01T10:30:39;17.23;;;14.27;;
17310;SDS011;8773;43.300;0.394;2022-12-01T10:33:20;15.80;;;14.30;;
17310;SDS011;8773;43.300;0.394;2022-12-01T10:35:50;16.33;;;14.83;;
17310;SDS011;8773;43.300;0.394;2022-12-01T10:38:21;15.63;;;14.10;;
17310;SDS011;8773;43.300;0.394;2022-12-01T10:40:53;16.07;;;14.50;;
17310;SDS011;8773;43.300;0.394;2022-12-01T10:43:28;14.50;;;13.10;;
17310;SDS011;8773;43.300;0.394;2022-12-01T10:46:12;14.83;;;13.43;;
17310;SDS011;8773;43.300;0.394;2022-12-01T10:48:53;14.67;;;13.43;;
17310;SDS011;8773;43.300;0.394;2022-12-01T10:51:22;17.67;;;15.83;;
17310;SDS011;8773;43.300;0.394;2022-12-01T10:53:56;16.63;;;14.90;;
17310;SDS011;8773;43.300;0.394;2022-12-01T10:56:26;14.87;;;13.30;;
17310;SDS011;8773;43.300;0.394;2022-12-01T10:58:54;17.87;;;13.67;;
17310;SDS011;8773;43.300;0.394;2022-12-01T11:01:26;27.73;;;15.47;;
17310;SDS011;8773;43.300;0.394;2022-12-01T11:03:59;25.73;;;17.30;;
17310;SDS011;8773;43.300;0.394;2022-12-01T11:06:33;26.93;;;16.40;;
17310;SDS011;8773;43.300;0.394;2022-12-01T11:09:02;15.37;;;13.63;;
17310;SDS011;8773;43.300;0.394;2022-12-01T11:11:33;20.63;;;13.77;;
17310;SDS011;8773;43.300;0.394;2022-12-01T11:17:12;17.47;;;14.93;;
17310;SDS011;8773;43.300;0.394;2022-12-01T11:19:43;15.73;;;12.90;;
17310;SDS011;8773;43.300;0.394;2022-12-01T11:22:18;14.97;;;13.57;;
17310;SDS011;8773;43.300;0.394;2022-12-01T11:25:00;19.70;;;14.53;;
17310;SDS011;8773;43.300;0.394;2022-12-01T11:27:31;28.63;;;14.23;;
17310;SDS011;8773;43.300;0.394;2022-12-01T11:30:03;17.37;;;14.10;;
17310;SDS011;8773;43.300;0.394;2022-12-01T11:32:36;14.33;;;12.83;;
17310;SDS011;8773;43.300;0.394;2022-12-01T11:35:14;17.70;;;15.33;;
17310;SDS011;8773;43.300;0.394;2022-12-01T11:37:45;15.80;;;13.53;;
17310;SDS011;8773;43.300;0.394;2022-12-01T11:40:44;16.17;;;14.47;;
17310;SDS011;8773;43.300;0.394;2022-12-01T11:43:18;18.60;;;14.30;;
17310;SDS011;8773;43.300;0.394;2022-12-01T11:45:52;16.83;;;13.23;;
17310;SDS011;8773;43.300;0.394;2022-12-01T11:48:25;14.77;;;13.33;;
17310;SDS011;8773;43.300;0.394;2022-12-01T11:51:07;15.77;;;14.17;;
17310;SDS011;8773;43.300;0.394;2022-12-01T11:53:42;14.27;;;12.87;;
17310;SDS011;8773;43.300;0.394;2022-12-01T11:56:14;15.73;;;13.23;;
17310;SDS011;8773;43.300;0.394;2022-12-01T11:58:46;14.17;;;12.73;;
17310;SDS011;8773;43.300;0.394;2022-12-01T12:01:24;14.93;;;13.50;;
17310;SDS011;8773;43.300;0.394;2022-12-01T12:04:00;16.60;;;14.90;;
17310;SDS011;8773;43.300;0.394;2022-12-01T12:06:42;18.97;;;14.93;;
17310;SDS011;8773;43.300;0.394;2022-12-01T12:09:29;14.83;;;13.20;;
17310;SDS011;8773;43.300;0.394;2022-12-01T12:12:13;13.93;;;12.53;;
17310;SDS011;8773;43.300;0.394;2022-12-01T12:14:53;15.87;;;14.27;;
17310;SDS011;8773;43.300;0.394;2022-12-01T12:17:43;15.60;;;14.03;;
17310;SDS011;8773;43.300;0.394;2022-12-01T12:20:28;13.70;;;12.43;;
17310;SDS011;8773;43.300;0.394;2022-12-01T12:23:11;16.10;;;14.50;;
17310;SDS011;8773;43.300;0.394;2022-12-01T12:25:53;15.47;;;13.87;;
17310;SDS011;8773;43.300;0.394;2022-12-01T12:28:39;18.07;;;14.30;;
17310;SDS011;8773;43.300;0.394;2022-12-01T12:31:21;15.43;;;13.83;;
17310;SDS011;8773;43.300;0.394;2022-12-01T12:34:20;16.30;;;14.37;;
17310;SDS011;8773;43.300;0.394;2022-12-01T12:37:05;18.10;;;14.87;;
17310;SDS011;8773;43.300;0.394;2022-12-01T12:39:49;16.67;;;14.43;;
17310;SDS011;8773;43.300;0.394;2022-12-01T12:42:33;14.83;;;13.30;;
17310;SDS011;8773;43.300;0.394;2022-12-01T12:45:09;14.43;;;13.00;;
17310;SDS011;8773;43.300;0.394;2022-12-01T12:47:49;15.50;;;13.90;;
17310;SDS011;8773;43.300;0.394;2022-12-01T12:50:30;18.83;;;14.83;;
17310;SDS011;8773;43.300;0.394;2022-12-01T12:53:12;17.20;;;15.40;;
17310;SDS011;8773;43.300;0.394;2022-12-01T12:55:47;17.17;;;15.47;;
17310;SDS011;8773;43.300;0.394;2022-12-01T12:58:19;18.70;;;15.57;;
17310;SDS011;8773;43.300;0.394;2022-12-01T13:00:55;16.03;;;14.57;;
17310;SDS011;8773;43.300;0.394;2022-12-01T13:03:34;16.07;;;14.60;;
17310;SDS011;8773;43.300;0.394;2022-12-01T13:06:12;22.60;;;15.77;;
17310;SDS011;8773;43.300;0.394;2022-12-01T13:08:47;16.27;;;14.67;;
17310;SDS011;8773;43.300;0.394;2022-12-01T13:11:21;16.87;;;15.13;;
17310;SDS011;8773;43.300;0.394;2022-12-01T13:13:55;17.97;;;16.13;;
17310;SDS011;8773;43.300;0.394;2022-12-01T13:16:29;20.07;;;17.87;;
17310;SDS011;8773;43.300;0.394;2022-12-01T13:19:04;18.60;;;16.70;;
17310;SDS011;8773;43.300;0.394;2022-12-01T13:21:39;22.27;;;18.33;;
17310;SDS011;8773;43.300;0.394;2022-12-01T13:24:11;16.47;;;14.77;;
17310;SDS011;8773;43.300;0.394;2022-12-01T13:26:51;26.03;;;17.60;;
17310;SDS011;8773;43.300;0.394;2022-12-01T13:29:24;31.93;;;23.77;;
17310;SDS011;8773;43.300;0.394;2022-12-01T13:31:53;19.93;;;16.50;;
17310;SDS011;8773;43.300;0.394;2022-12-01T13:34:23;19.40;;;17.03;;
17310;SDS011;8773;43.300;0.394;2022-12-01T13:36:55;18.10;;;16.30;;
17310;SDS011;8773;43.300;0.394;2022-12-01T13:39:24;16.97;;;15.33;;
17310;SDS011;8773;43.300;0.394;2022-12-01T13:42:03;19.73;;;17.63;;
17310;SDS011;8773;43.300;0.394;2022-12-01T13:44:36;18.90;;;16.73;;
17310;SDS011;8773;43.300;0.394;2022-12-01T13:53:05;20.17;;;18.17;;
17310;SDS011;8773;43.300;0.394;2022-12-01T13:55:52;18.30;;;16.50;;
17310;SDS011;8773;43.300;0.394;2022-12-01T13:58:26;17.73;;;15.87;;
17310;SDS011;8773;43.300;0.394;2022-12-01T14:04:23;16.23;;;14.83;;
17310;SDS011;8773;43.300;0.394;2022-12-01T14:12:50;17.03;;;15.50;;
17310;SDS011;8773;43.300;0.394;2022-12-01T14:15:31;20.33;;;17.43;;
17310;SDS011;8773;43.300;0.394;2022-12-01T14:18:03;21.87;;;18.80;;
17310;SDS011;8773;43.300;0.394;2022-12-01T14:20:34;21.63;;;19.53;;
17310;SDS011;8773;43.300;0.394;2022-12-01T14:23:11;19.23;;;17.30;;
17310;SDS011;8773;43.300;0.394;2022-12-01T14:25:42;19.73;;;17.73;;
17310;SDS011;8773;43.300;0.394;2022-12-01T14:34:32;23.30;;;20.73;;
17310;SDS011;8773;43.300;0.394;2022-12-01T14:37:02;23.87;;;19.90;;
17310;SDS011;8773;43.300;0.394;2022-12-01T14:39:34;21.37;;;19.13;;
17310;SDS011;8773;43.300;0.394;2022-12-01T14:42:05;22.40;;;19.97;;
17310;SDS011;8773;43.300;0.394;2022-12-01T14:45:21;21.83;;;19.60;;
17310;SDS011;8773;43.300;0.394;2022-12-01T14:47:57;29.00;;;21.00;;
17310;SDS011;8773;43.300;0.394;2022-12-01T14:50:32;23.50;;;20.80;;
17310;SDS011;8773;43.300;0.394;2022-12-01T14:53:16;25.57;;;21.53;;
17310;SDS011;8773;43.300;0.394;2022-12-01T14:55:51;22.17;;;19.87;;
17310;SDS011;8773;43.300;0.394;2022-12-01T14:58:24;26.83;;;20.23;;
17310;SDS011;8773;43.300;0.394;2022-12-01T15:00:58;22.17;;;19.80;;
17310;SDS011;8773;43.300;0.394;2022-12-01T15:03:33;29.10;;;20.87;;
17310;SDS011;8773;43.300;0.394;2022-12-01T15:06:05;31.77;;;20.60;;
17310;SDS011;8773;43.300;0.394;2022-12-01T15:08:35;26.23;;;20.93;;
17310;SDS011;8773;43.300;0.394;2022-12-01T15:11:18;24.47;;;19.00;;
17310;SDS011;8773;43.300;0.394;2022-12-01T15:13:49;21.17;;;18.97;;
17310;SDS011;8773;43.300;0.394;2022-12-01T15:16:19;22.00;;;19.60;;
17310;SDS011;8773;43.300;0.394;2022-12-01T15:18:49;22.07;;;19.63;;
17310;SDS011;8773;43.300;0.394;2022-12-01T15:21:18;26.90;;;19.73;;
17310;SDS011;8773;43.300;0.394;2022-12-01T15:23:53;31.67;;;22.10;;
17310;SDS011;8773;43.300;0.394;2022-12-01T15:26:24;34.40;;;22.20;;
17310;SDS011;8773;43.300;0.394;2022-12-01T15:29:05;37.83;;;23.60;;
17310;SDS011;8773;43.300;0.394;2022-12-01T15:31:41;23.80;;;20.80;;
17310;SDS011;8773;43.300;0.394;2022-12-01T15:34:13;21.80;;;18.63;;
17310;SDS011;8773;43.300;0.394;2022-12-01T15:36:43;23.97;;;20.83;;
17310;SDS011;8773;43.300;0.394;2022-12-01T15:39:13;51.70;;;23.03;;
17310;SDS011;8773;43.300;0.394;2022-12-01T15:41:43;33.50;;;20.93;;